sensor_id;sensor_type;location;lat;lon;timestamp;pressure;altitude;pressure_sealevel;temperature;humidity
50268;BME280;36153;50.960;6.220;2024-01-30T00:01:30;101708.41;;;11.80;58.61
50268;BME280;36153;50.960;6.220;2024-01-30T00:03:31;101707.53;;;11.79;58.60
50268;BME280;36153;50.960;6.220;2024-01-30T00:05:31;101708.50;;;11.82;58.46
50268;BME280;36153;50.960;6.220;2024-01-30T00:07:31;101705.56;;;11.69;58.44
50268;BME280;36153;50.960;6.220;2024-01-30T00:09:32;101699.66;;;11.76;58.85
50268;BME280;36153;50.960;6.220;2024-01-30T00:11:32;101692.00;;;11.84;58.78
50268;BME280;36153;50.960;6.220;2024-01-30T00:13:33;101692.13;;;11.89;58.61
50268;BME280;36153;50.960;6.220;2024-01-30T00:15:34;101693.88;;;11.90;58.79
50268;BME280;36153;50.960;6.220;2024-01-30T00:17:36;101692.94;;;11.86;58.92
50268;BME280;36153;50.960;6.220;2024-01-30T00:19:37;101692.25;;;11.93;58.68
50268;BME280;36153;50.960;6.220;2024-01-30T00:21:37;101687.00;;;11.92;58.75
50268;BME280;36153;50.960;6.220;2024-01-30T00:23:39;101683.66;;;11.96;58.66
50268;BME280;36153;50.960;6.220;2024-01-30T00:25:39;101683.44;;;11.90;58.99
50268;BME280;36153;50.960;6.220;2024-01-30T00:27:39;101674.78;;;11.91;58.83
50268;BME280;36153;50.960;6.220;2024-01-30T00:29:40;101681.03;;;11.96;58.65
50268;BME280;36153;50.960;6.220;2024-01-30T00:31:41;101679.44;;;12.01;58.65
50268;BME280;36153;50.960;6.220;2024-01-30T00:33:42;101672.41;;;11.99;58.34
50268;BME280;36153;50.960;6.220;2024-01-30T00:35:42;101674.97;;;11.97;58.65
50268;BME280;36153;50.960;6.220;2024-01-30T00:37:42;101667.19;;;11.99;58.78
50268;BME280;36153;50.960;6.220;2024-01-30T00:39:43;101668.09;;;12.01;58.68
50268;BME280;36153;50.960;6.220;2024-01-30T00:41:43;101667.34;;;12.06;58.72
50268;BME280;36153;50.960;6.220;2024-01-30T00:43:43;101664.84;;;12.09;58.59
50268;BME280;36153;50.960;6.220;2024-01-30T00:45:44;101668.31;;;12.10;58.65
50268;BME280;36153;50.960;6.220;2024-01-30T00:47:45;101670.00;;;12.08;58.41
50268;BME280;36153;50.960;6.220;2024-01-30T00:49:45;101665.78;;;12.13;58.42
50268;BME280;36153;50.960;6.220;2024-01-30T00:51:46;101670.94;;;12.10;58.64
50268;BME280;36153;50.960;6.220;2024-01-30T00:53:46;101665.56;;;12.04;58.51
50268;BME280;36153;50.960;6.220;2024-01-30T00:55:48;101670.66;;;11.99;58.62
50268;BME280;36153;50.960;6.220;2024-01-30T00:57:48;101674.09;;;11.97;58.57
50268;BME280;36153;50.960;6.220;2024-01-30T00:59:49;101674.03;;;11.95;58.77
50268;BME280;36153;50.960;6.220;2024-01-30T01:01:49;101673.25;;;11.98;58.61
50268;BME280;36153;50.960;6.220;2024-01-30T01:03:49;101675.47;;;11.84;59.12
50268;BME280;36153;50.960;6.220;2024-01-30T01:05:51;101674.25;;;11.69;59.44
50268;BME280;36153;50.960;6.220;2024-01-30T01:07:51;101683.75;;;11.67;59.65
50268;BME280;36153;50.960;6.220;2024-01-30T01:09:51;101682.03;;;11.68;59.69
50268;BME280;36153;50.960;6.220;2024-01-30T01:11:52;101681.94;;;11.65;59.78
50268;BME280;36153;50.960;6.220;2024-01-30T01:13:52;101683.72;;;11.66;59.92
50268;BME280;36153;50.960;6.220;2024-01-30T01:15:52;101677.63;;;11.65;59.89
50268;BME280;36153;50.960;6.220;2024-01-30T01:17:52;101681.72;;;11.89;59.26
50268;BME280;36153;50.960;6.220;2024-01-30T01:19:53;101672.34;;;11.95;59.01
50268;BME280;36153;50.960;6.220;2024-01-30T01:21:53;101675.84;;;11.98;58.63
50268;BME280;36153;50.960;6.220;2024-01-30T01:23:54;101669.84;;;12.00;58.89
50268;BME280;36153;50.960;6.220;2024-01-30T01:25:54;101666.47;;;12.04;58.82
50268;BME280;36153;50.960;6.220;2024-01-30T01:27:57;101667.19;;;11.99;58.75
50268;BME280;36153;50.960;6.220;2024-01-30T01:29:57;101669.75;;;11.97;58.91
50268;BME280;36153;50.960;6.220;2024-01-30T01:31:58;101668.03;;;11.98;58.96
50268;BME280;36153;50.960;6.220;2024-01-30T01:34:00;101668.22;;;12.05;59.09
50268;BME280;36153;50.960;6.220;2024-01-30T01:36:00;101670.97;;;12.11;59.26
50268;BME280;36153;50.960;6.220;2024-01-30T01:38:02;101667.69;;;12.20;59.12
50268;BME280;36153;50.960;6.220;2024-01-30T01:40:03;101668.72;;;12.27;58.66
50268;BME280;36153;50.960;6.220;2024-01-30T01:42:04;101666.13;;;12.28;58.39
50268;BME280;36153;50.960;6.220;2024-01-30T01:44:04;101667.88;;;12.28;58.47
50268;BME280;36153;50.960;6.220;2024-01-30T01:46:06;101664.22;;;12.20;58.34
50268;BME280;36153;50.960;6.220;2024-01-30T01:48:07;101670.25;;;12.19;58.21
50268;BME280;36153;50.960;6.220;2024-01-30T01:50:08;101665.09;;;12.22;58.37
50268;BME280;36153;50.960;6.220;2024-01-30T01:52:09;101663.34;;;12.19;58.28
50268;BME280;36153;50.960;6.220;2024-01-30T01:54:10;101672.88;;;12.19;58.00
50268;BME280;36153;50.960;6.220;2024-01-30T01:56:11;101661.38;;;12.10;57.85
50268;BME280;36153;50.960;6.220;2024-01-30T01:58:12;101663.84;;;12.04;57.95
50268;BME280;36153;50.960;6.220;2024-01-30T02:00:14;101669.16;;;12.09;58.28
50268;BME280;36153;50.960;6.220;2024-01-30T02:02:17;101662.41;;;12.17;58.32
50268;BME280;36153;50.960;6.220;2024-01-30T02:04:19;101655.53;;;12.21;58.57
50268;BME280;36153;50.960;6.220;2024-01-30T02:06:20;101647.91;;;12.30;58.56
50268;BME280;36153;50.960;6.220;2024-01-30T02:08:21;101651.72;;;12.44;58.33
50268;BME280;36153;50.960;6.220;2024-01-30T02:10:21;101650.00;;;12.46;58.06
50268;BME280;36153;50.960;6.220;2024-01-30T02:12:22;101648.31;;;12.49;58.17
50268;BME280;36153;50.960;6.220;2024-01-30T02:14:22;101645.75;;;12.50;58.09
50268;BME280;36153;50.960;6.220;2024-01-30T02:16:24;101645.81;;;12.53;57.62
50268;BME280;36153;50.960;6.220;2024-01-30T02:18:24;101644.78;;;12.46;57.95
50268;BME280;36153;50.960;6.220;2024-01-30T02:20:27;101649.19;;;12.49;57.80
50268;BME280;36153;50.960;6.220;2024-01-30T02:22:29;101645.78;;;12.52;57.61
50268;BME280;36153;50.960;6.220;2024-01-30T02:24:32;101641.38;;;12.51;57.57
50268;BME280;36153;50.960;6.220;2024-01-30T02:26:33;101646.50;;;12.44;57.35
50268;BME280;36153;50.960;6.220;2024-01-30T02:28:34;101643.88;;;12.44;57.38
50268;BME280;36153;50.960;6.220;2024-01-30T02:30:39;101636.84;;;12.42;57.31
50268;BME280;36153;50.960;6.220;2024-01-30T02:32:39;101643.66;;;12.35;57.42
50268;BME280;36153;50.960;6.220;2024-01-30T02:34:39;101639.22;;;12.31;57.73
50268;BME280;36153;50.960;6.220;2024-01-30T02:36:43;101626.22;;;12.34;57.68
50268;BME280;36153;50.960;6.220;2024-01-30T02:38:43;101633.09;;;12.29;57.87
50268;BME280;36153;50.960;6.220;2024-01-30T02:40:45;101629.53;;;12.25;57.98
50268;BME280;36153;50.960;6.220;2024-01-30T02:42:45;101628.03;;;12.37;57.91
50268;BME280;36153;50.960;6.220;2024-01-30T02:44:45;101623.59;;;12.33;57.91
50268;BME280;36153;50.960;6.220;2024-01-30T02:46:46;101626.47;;;12.45;58.12
50268;BME280;36153;50.960;6.220;2024-01-30T02:48:46;101629.47;;;12.63;57.97
50268;BME280;36153;50.960;6.220;2024-01-30T02:50:47;101629.84;;;12.80;57.53
50268;BME280;36153;50.960;6.220;2024-01-30T02:52:47;101627.41;;;12.90;57.24
50268;BME280;36153;50.960;6.220;2024-01-30T02:54:49;101630.25;;;13.02;56.78
50268;BME280;36153;50.960;6.220;2024-01-30T02:56:50;101626.84;;;13.06;56.78
50268;BME280;36153;50.960;6.220;2024-01-30T02:58:50;101624.50;;;13.20;56.59
50268;BME280;36153;50.960;6.220;2024-01-30T03:00:51;101622.09;;;13.31;56.39
50268;BME280;36153;50.960;6.220;2024-01-30T03:02:52;101617.13;;;13.43;56.10
50268;BME280;36153;50.960;6.220;2024-01-30T03:04:53;101615.56;;;13.55;55.72
50268;BME280;36153;50.960;6.220;2024-01-30T03:06:54;101617.25;;;13.53;55.25
50268;BME280;36153;50.960;6.220;2024-01-30T03:08:54;101618.06;;;13.48;54.96
50268;BME280;36153;50.960;6.220;2024-01-30T03:10:54;101613.00;;;13.58;55.36
50268;BME280;36153;50.960;6.220;2024-01-30T03:12:55;101612.16;;;13.59;54.94
50268;BME280;36153;50.960;6.220;2024-01-30T03:14:55;101615.63;;;13.59;54.98
50268;BME280;36153;50.960;6.220;2024-01-30T03:16:55;101609.56;;;13.62;55.00
50268;BME280;36153;50.960;6.220;2024-01-30T03:18:56;101615.59;;;13.56;54.70
50268;BME280;36153;50.960;6.220;2024-01-30T03:20:56;101619.78;;;13.48;54.75
50268;BME280;36153;50.960;6.220;2024-01-30T03:22:56;101612.78;;;13.45;55.10
50268;BME280;36153;50.960;6.220;2024-01-30T03:24:58;101614.53;;;13.46;55.28
50268;BME280;36153;50.960;6.220;2024-01-30T03:26:58;101613.69;;;13.47;54.99
50268;BME280;36153;50.960;6.220;2024-01-30T03:28:59;101616.13;;;13.37;55.11
50268;BME280;36153;50.960;6.220;2024-01-30T03:31:00;101609.03;;;13.32;55.04
50268;BME280;36153;50.960;6.220;2024-01-30T03:33:01;101602.00;;;13.30;55.06
50268;BME280;36153;50.960;6.220;2024-01-30T03:35:02;101602.94;;;13.32;55.28
50268;BME280;36153;50.960;6.220;2024-01-30T03:37:02;101606.16;;;13.19;54.99
50268;BME280;36153;50.960;6.220;2024-01-30T03:39:03;101608.56;;;13.06;55.47
50268;BME280;36153;50.960;6.220;2024-01-30T03:41:07;101607.53;;;13.00;56.33
50268;BME280;36153;50.960;6.220;2024-01-30T03:43:07;101604.06;;;12.99;56.04
50268;BME280;36153;50.960;6.220;2024-01-30T03:45:08;101601.47;;;13.01;55.75
50268;BME280;36153;50.960;6.220;2024-01-30T03:47:08;101602.19;;;12.92;55.69
50268;BME280;36153;50.960;6.220;2024-01-30T03:49:09;101600.22;;;12.81;55.85
50268;BME280;36153;50.960;6.220;2024-01-30T03:51:10;101600.16;;;12.78;55.81
50268;BME280;36153;50.960;6.220;2024-01-30T03:53:14;101604.41;;;12.73;56.09
50268;BME280;36153;50.960;6.220;2024-01-30T03:55:15;101599.81;;;12.60;56.09
50268;BME280;36153;50.960;6.220;2024-01-30T03:57:15;101597.06;;;12.54;56.08
50268;BME280;36153;50.960;6.220;2024-01-30T03:59:15;101603.00;;;12.46;56.39
50268;BME280;36153;50.960;6.220;2024-01-30T04:01:17;101602.84;;;12.39;56.36
50268;BME280;36153;50.960;6.220;2024-01-30T04:03:19;101605.25;;;12.29;56.48
50268;BME280;36153;50.960;6.220;2024-01-30T04:05:19;101607.84;;;12.28;56.94
50268;BME280;36153;50.960;6.220;2024-01-30T04:07:20;101600.94;;;12.32;56.84
50268;BME280;36153;50.960;6.220;2024-01-30T04:09:20;101601.78;;;12.29;56.88
50268;BME280;36153;50.960;6.220;2024-01-30T04:11:20;101609.47;;;12.24;56.93
50268;BME280;36153;50.960;6.220;2024-01-30T04:13:21;101604.16;;;12.20;57.03
50268;BME280;36153;50.960;6.220;2024-01-30T04:15:21;101594.56;;;12.19;57.01
50268;BME280;36153;50.960;6.220;2024-01-30T04:17:21;101598.13;;;12.22;57.22
50268;BME280;36153;50.960;6.220;2024-01-30T04:19:22;101594.59;;;12.20;57.12
50268;BME280;36153;50.960;6.220;2024-01-30T04:21:23;101597.19;;;12.20;57.07
50268;BME280;36153;50.960;6.220;2024-01-30T04:23:23;101596.28;;;12.17;57.33
50268;BME280;36153;50.960;6.220;2024-01-30T04:25:23;101587.50;;;12.15;57.31
50268;BME280;36153;50.960;6.220;2024-01-30T04:27:24;101590.03;;;12.10;57.81
50268;BME280;36153;50.960;6.220;2024-01-30T04:29:26;101584.19;;;12.22;58.01
50268;BME280;36153;50.960;6.220;2024-01-30T04:31:26;101581.75;;;12.29;58.03
50268;BME280;36153;50.960;6.220;2024-01-30T04:33:26;101585.72;;;12.52;58.28
50268;BME280;36153;50.960;6.220;2024-01-30T04:35:27;101587.88;;;12.73;58.47
50268;BME280;36153;50.960;6.220;2024-01-30T04:37:28;101582.28;;;12.98;58.33
50268;BME280;36153;50.960;6.220;2024-01-30T04:39:28;101579.06;;;13.13;57.87
50268;BME280;36153;50.960;6.220;2024-01-30T04:41:30;101574.06;;;13.27;57.08
50268;BME280;36153;50.960;6.220;2024-01-30T04:43:32;101578.47;;;13.30;57.14
50268;BME280;36153;50.960;6.220;2024-01-30T04:45:32;101579.56;;;13.40;56.98
50268;BME280;36153;50.960;6.220;2024-01-30T04:47:33;101580.50;;;13.43;56.82
50268;BME280;36153;50.960;6.220;2024-01-30T04:49:34;101583.16;;;13.46;56.35
50268;BME280;36153;50.960;6.220;2024-01-30T04:51:36;101579.69;;;13.47;56.11
50268;BME280;36153;50.960;6.220;2024-01-30T04:53:37;101578.72;;;13.42;56.10
50268;BME280;36153;50.960;6.220;2024-01-30T04:55:39;101574.31;;;13.40;56.76
50268;BME280;36153;50.960;6.220;2024-01-30T04:57:41;101572.63;;;13.42;56.59
50268;BME280;36153;50.960;6.220;2024-01-30T04:59:41;101585.78;;;13.48;56.41
50268;BME280;36153;50.960;6.220;2024-01-30T05:01:43;101580.34;;;13.36;56.20
50268;BME280;36153;50.960;6.220;2024-01-30T05:03:43;101581.00;;;13.24;56.38
50268;BME280;36153;50.960;6.220;2024-01-30T05:05:44;101576.56;;;13.20;56.37
50268;BME280;36153;50.960;6.220;2024-01-30T05:07:44;101581.66;;;13.12;56.53
50268;BME280;36153;50.960;6.220;2024-01-30T05:09:45;101588.47;;;13.05;56.36
50268;BME280;36153;50.960;6.220;2024-01-30T05:11:46;101582.13;;;12.91;56.52
50268;BME280;36153;50.960;6.220;2024-01-30T05:13:47;101578.47;;;12.83;56.73
50268;BME280;36153;50.960;6.220;2024-01-30T05:15:47;101580.25;;;12.84;56.81
50268;BME280;36153;50.960;6.220;2024-01-30T05:17:49;101576.69;;;12.80;57.45
50268;BME280;36153;50.960;6.220;2024-01-30T05:19:50;101570.63;;;12.81;57.26
50268;BME280;36153;50.960;6.220;2024-01-30T05:21:52;101567.00;;;12.74;57.31
50268;BME280;36153;50.960;6.220;2024-01-30T05:23:53;101570.34;;;12.67;57.18
50268;BME280;36153;50.960;6.220;2024-01-30T05:25:54;101577.28;;;12.65;57.43
50268;BME280;36153;50.960;6.220;2024-01-30T05:27:54;101578.13;;;12.64;57.36
50268;BME280;36153;50.960;6.220;2024-01-30T05:29:55;101577.03;;;12.53;57.54
50268;BME280;36153;50.960;6.220;2024-01-30T05:31:56;101570.22;;;12.61;58.20
50268;BME280;36153;50.960;6.220;2024-01-30T05:33:56;101577.44;;;12.74;57.91
50268;BME280;36153;50.960;6.220;2024-01-30T05:36:00;101573.19;;;12.79;57.85
50268;BME280;36153;50.960;6.220;2024-01-30T05:38:00;101574.09;;;12.81;57.35
50268;BME280;36153;50.960;6.220;2024-01-30T05:40:01;101574.00;;;12.75;57.14
50268;BME280;36153;50.960;6.220;2024-01-30T05:42:03;101566.84;;;12.65;57.42
50268;BME280;36153;50.960;6.220;2024-01-30T05:44:04;101564.06;;;12.57;57.15
50268;BME280;36153;50.960;6.220;2024-01-30T05:46:06;101569.97;;;12.49;57.44
50268;BME280;36153;50.960;6.220;2024-01-30T05:48:08;101563.00;;;12.48;57.74
50268;BME280;36153;50.960;6.220;2024-01-30T05:50:08;101552.59;;;12.51;57.49
50268;BME280;36153;50.960;6.220;2024-01-30T05:52:09;101556.13;;;12.53;57.80
50268;BME280;36153;50.960;6.220;2024-01-30T05:54:09;101550.97;;;12.56;57.84
50268;BME280;36153;50.960;6.220;2024-01-30T05:56:10;101545.72;;;12.54;57.73
50268;BME280;36153;50.960;6.220;2024-01-30T05:58:11;101550.97;;;12.56;57.86
50268;BME280;36153;50.960;6.220;2024-01-30T06:00:11;101544.91;;;12.57;58.01
50268;BME280;36153;50.960;6.220;2024-01-30T06:02:12;101550.97;;;12.56;58.03
50268;BME280;36153;50.960;6.220;2024-01-30T06:04:14;101550.06;;;12.55;58.14
50268;BME280;36153;50.960;6.220;2024-01-30T06:06:15;101551.72;;;12.50;57.82
50268;BME280;36153;50.960;6.220;2024-01-30T06:08:16;101555.06;;;12.43;58.01
50268;BME280;36153;50.960;6.220;2024-01-30T06:10:17;101554.16;;;12.42;58.02
50268;BME280;36153;50.960;6.220;2024-01-30T06:12:18;101551.44;;;12.36;58.26
50268;BME280;36153;50.960;6.220;2024-01-30T06:14:19;101551.44;;;12.36;58.19
50268;BME280;36153;50.960;6.220;2024-01-30T06:16:21;101555.94;;;12.43;58.39
50268;BME280;36153;50.960;6.220;2024-01-30T06:18:22;101550.78;;;12.46;58.47
50268;BME280;36153;50.960;6.220;2024-01-30T06:20:23;101551.09;;;12.63;58.90
50268;BME280;36153;50.960;6.220;2024-01-30T06:22:24;101550.94;;;12.98;59.38
50268;BME280;36153;50.960;6.220;2024-01-30T06:24:25;101544.50;;;13.31;58.71
50268;BME280;36153;50.960;6.220;2024-01-30T06:26:26;101553.59;;;13.51;57.87
50268;BME280;36153;50.960;6.220;2024-01-30T06:28:27;101544.28;;;13.68;57.49
50268;BME280;36153;50.960;6.220;2024-01-30T06:30:30;101551.63;;;13.94;56.67
50268;BME280;36153;50.960;6.220;2024-01-30T06:32:31;101551.75;;;14.03;56.27
50268;BME280;36153;50.960;6.220;2024-01-30T06:34:34;101553.63;;;14.12;56.00
50268;BME280;36153;50.960;6.220;2024-01-30T06:36:35;101557.91;;;14.07;55.78
50268;BME280;36153;50.960;6.220;2024-01-30T06:38:35;101550.13;;;14.11;55.77
50268;BME280;36153;50.960;6.220;2024-01-30T06:40:36;101558.88;;;14.13;55.81
50268;BME280;36153;50.960;6.220;2024-01-30T06:42:37;101560.88;;;14.31;55.47
50268;BME280;36153;50.960;6.220;2024-01-30T06:44:37;101562.72;;;14.40;55.87
50268;BME280;36153;50.960;6.220;2024-01-30T06:46:38;101555.91;;;14.53;55.35
50268;BME280;36153;50.960;6.220;2024-01-30T06:48:39;101555.28;;;14.71;55.23
50268;BME280;36153;50.960;6.220;2024-01-30T06:50:40;101557.03;;;14.74;54.84
50268;BME280;36153;50.960;6.220;2024-01-30T06:52:42;101558.91;;;14.84;54.85
50268;BME280;36153;50.960;6.220;2024-01-30T06:54:43;101553.69;;;14.89;54.73
50268;BME280;36153;50.960;6.220;2024-01-30T06:56:43;101563.34;;;14.91;55.10
50268;BME280;36153;50.960;6.220;2024-01-30T06:58:44;101554.66;;;14.98;54.61
50268;BME280;36153;50.960;6.220;2024-01-30T07:00:45;101554.56;;;14.88;54.98
50268;BME280;36153;50.960;6.220;2024-01-30T07:02:46;101551.03;;;14.82;54.84
50268;BME280;36153;50.960;6.220;2024-01-30T07:04:48;101554.63;;;14.91;55.31
50268;BME280;36153;50.960;6.220;2024-01-30T07:06:49;101561.53;;;14.85;55.19
50268;BME280;36153;50.960;6.220;2024-01-30T07:08:50;101553.78;;;14.95;54.85
50268;BME280;36153;50.960;6.220;2024-01-30T07:10:50;101563.38;;;14.94;55.32
50268;BME280;36153;50.960;6.220;2024-01-30T07:12:55;101570.22;;;14.81;55.22
50268;BME280;36153;50.960;6.220;2024-01-30T07:14:55;101564.19;;;14.90;55.23
50268;BME280;36153;50.960;6.220;2024-01-30T07:16:56;101573.84;;;14.93;55.04
50268;BME280;36153;50.960;6.220;2024-01-30T07:18:57;101578.25;;;14.97;54.98
50268;BME280;36153;50.960;6.220;2024-01-30T07:20:58;101579.09;;;14.93;55.23
50268;BME280;36153;50.960;6.220;2024-01-30T07:22:58;101583.47;;;14.94;55.10
50268;BME280;36153;50.960;6.220;2024-01-30T07:25:00;101586.13;;;14.97;55.14
50268;BME280;36153;50.960;6.220;2024-01-30T07:27:01;101588.69;;;14.89;55.23
50268;BME280;36153;50.960;6.220;2024-01-30T07:29:01;101589.56;;;14.93;55.58
50268;BME280;36153;50.960;6.220;2024-01-30T07:31:03;101586.97;;;14.94;55.42
50268;BME280;36153;50.960;6.220;2024-01-30T07:33:05;101586.06;;;14.91;55.61
50268;BME280;36153;50.960;6.220;2024-01-30T07:35:05;101592.19;;;14.93;55.51
50268;BME280;36153;50.960;6.220;2024-01-30T07:37:06;101595.59;;;14.84;55.27
50268;BME280;36153;50.960;6.220;2024-01-30T07:39:08;101599.88;;;14.77;55.46
50268;BME280;36153;50.960;6.220;2024-01-30T07:41:10;101599.03;;;14.77;55.71
50268;BME280;36153;50.960;6.220;2024-01-30T07:43:11;101607.84;;;14.85;55.96
50268;BME280;36153;50.960;6.220;2024-01-30T07:45:11;101597.72;;;15.21;54.99
50268;BME280;36153;50.960;6.220;2024-01-30T07:47:12;101604.88;;;15.37;54.13
50268;BME280;36153;50.960;6.220;2024-01-30T07:49:13;101598.84;;;15.47;54.20
50268;BME280;36153;50.960;6.220;2024-01-30T07:51:14;101599.81;;;15.59;53.72
50268;BME280;36153;50.960;6.220;2024-01-30T07:53:15;101605.50;;;15.11;54.92
50268;BME280;36153;50.960;6.220;2024-01-30T07:55:16;101613.34;;;15.10;55.07
50268;BME280;36153;50.960;6.220;2024-01-30T07:57:17;101613.44;;;15.16;54.96
50268;BME280;36153;50.960;6.220;2024-01-30T07:59:17;101614.25;;;15.10;54.97
50268;BME280;36153;50.960;6.220;2024-01-30T08:01:20;101616.13;;;15.24;54.79
50268;BME280;36153;50.960;6.220;2024-01-30T08:03:21;101613.56;;;15.31;54.60
50268;BME280;36153;50.960;6.220;2024-01-30T08:05:22;101622.47;;;15.47;54.57
50268;BME280;36153;50.960;6.220;2024-01-30T08:07:23;101625.19;;;15.60;54.10
50268;BME280;36153;50.960;6.220;2024-01-30T08:09:24;101613.81;;;15.55;54.15
50268;BME280;36153;50.960;6.220;2024-01-30T08:11:27;101617.19;;;15.43;54.31
50268;BME280;36153;50.960;6.220;2024-01-30T08:13:29;101618.09;;;15.48;54.15
50268;BME280;36153;50.960;6.220;2024-01-30T08:15:30;101622.56;;;15.57;53.93
50268;BME280;36153;50.960;6.220;2024-01-30T08:17:31;101630.44;;;15.57;53.62
50268;BME280;36153;50.960;6.220;2024-01-30T08:19:32;101628.63;;;15.49;53.81
50268;BME280;36153;50.960;6.220;2024-01-30T08:21:32;101633.88;;;15.52;53.67
50268;BME280;36153;50.960;6.220;2024-01-30T08:23:38;101640.91;;;15.55;53.75
50268;BME280;36153;50.960;6.220;2024-01-30T08:25:39;101644.38;;;15.49;53.80
50268;BME280;36153;50.960;6.220;2024-01-30T08:27:40;101645.31;;;15.58;53.83
50268;BME280;36153;50.960;6.220;2024-01-30T08:29:40;101655.03;;;15.68;53.64
50268;BME280;36153;50.960;6.220;2024-01-30T08:31:42;101656.81;;;15.72;53.83
50268;BME280;36153;50.960;6.220;2024-01-30T08:33:44;101660.19;;;15.59;53.49
50268;BME280;36153;50.960;6.220;2024-01-30T08:35:45;101655.94;;;15.70;53.43
50268;BME280;36153;50.960;6.220;2024-01-30T08:37:45;101654.94;;;15.59;53.42
50268;BME280;36153;50.960;6.220;2024-01-30T08:39:46;101660.25;;;15.68;53.39
50268;BME280;36153;50.960;6.220;2024-01-30T08:41:46;101648.38;;;16.10;51.95
50268;BME280;36153;50.960;6.220;2024-01-30T08:43:47;101655.63;;;16.44;50.80
50268;BME280;36153;50.960;6.220;2024-01-30T08:45:47;101655.63;;;16.47;50.66
50268;BME280;36153;50.960;6.220;2024-01-30T08:47:48;101670.56;;;16.59;50.34
50268;BME280;36153;50.960;6.220;2024-01-30T08:49:49;101671.47;;;16.64;50.08
50268;BME280;36153;50.960;6.220;2024-01-30T08:51:49;101675.81;;;16.51;50.63
50268;BME280;36153;50.960;6.220;2024-01-30T08:53:50;101676.66;;;16.45;50.85
50268;BME280;36153;50.960;6.220;2024-01-30T08:55:52;101669.63;;;16.44;50.95
50268;BME280;36153;50.960;6.220;2024-01-30T08:57:56;101667.84;;;16.37;51.04
50268;BME280;36153;50.960;6.220;2024-01-30T08:59:56;101671.38;;;16.45;50.92
50268;BME280;36153;50.960;6.220;2024-01-30T09:01:57;101674.94;;;16.57;50.70
50268;BME280;36153;50.960;6.220;2024-01-30T09:03:59;101674.03;;;16.47;50.60
50268;BME280;36153;50.960;6.220;2024-01-30T09:05:59;101679.22;;;16.41;51.00
50268;BME280;36153;50.960;6.220;2024-01-30T09:08:00;101682.69;;;16.36;51.14
50268;BME280;36153;50.960;6.220;2024-01-30T09:10:01;101680.88;;;16.20;51.56
50268;BME280;36153;50.960;6.220;2024-01-30T09:12:02;101688.78;;;16.29;51.30
50268;BME280;36153;50.960;6.220;2024-01-30T09:14:07;101681.91;;;16.44;51.41
50268;BME280;36153;50.960;6.220;2024-01-30T09:16:07;101678.50;;;16.63;51.00
50268;BME280;36153;50.960;6.220;2024-01-30T09:18:09;101689.97;;;16.82;50.57
50268;BME280;36153;50.960;6.220;2024-01-30T09:20:10;101690.97;;;17.00;50.01
50268;BME280;36153;50.960;6.220;2024-01-30T09:22:10;101690.97;;;17.06;49.77
50268;BME280;36153;50.960;6.220;2024-01-30T09:24:10;101692.81;;;17.29;49.38
50268;BME280;36153;50.960;6.220;2024-01-30T09:26:11;101689.31;;;17.34;49.25
50268;BME280;36153;50.960;6.220;2024-01-30T09:28:13;101700.75;;;17.50;48.92
50268;BME280;36153;50.960;6.220;2024-01-30T09:30:14;101696.38;;;17.51;48.84
50268;BME280;36153;50.960;6.220;2024-01-30T09:32:14;101699.91;;;17.64;48.65
50268;BME280;36153;50.960;6.220;2024-01-30T09:34:15;101703.41;;;17.67;48.65
50268;BME280;36153;50.960;6.220;2024-01-30T09:36:15;101698.16;;;17.60;48.73
50268;BME280;36153;50.960;6.220;2024-01-30T09:38:18;101702.53;;;17.71;48.58
50268;BME280;36153;50.960;6.220;2024-01-30T09:40:19;101695.50;;;17.64;48.85
50268;BME280;36153;50.960;6.220;2024-01-30T09:44:29;101700.75;;;17.44;49.31
50268;BME280;36153;50.960;6.220;2024-01-30T09:46:31;101697.25;;;17.56;49.01
50268;BME280;36153;50.960;6.220;2024-01-30T09:48:33;101696.34;;;17.49;48.97
50268;BME280;36153;50.960;6.220;2024-01-30T09:50:34;101706.88;;;17.46;49.49
50268;BME280;36153;50.960;6.220;2024-01-30T09:52:36;101698.13;;;17.44;49.62
50268;BME280;36153;50.960;6.220;2024-01-30T09:54:38;101710.38;;;17.39;49.04
50268;BME280;36153;50.960;6.220;2024-01-30T09:56:38;101708.63;;;17.39;49.79
50268;BME280;36153;50.960;6.220;2024-01-30T09:58:39;101711.25;;;17.27;49.61
50268;BME280;36153;50.960;6.220;2024-01-30T10:00:41;101719.19;;;17.50;49.40
50268;BME280;36153;50.960;6.220;2024-01-30T10:02:41;101701.63;;;17.49;49.41
50268;BME280;36153;50.960;6.220;2024-01-30T10:04:42;101712.16;;;17.40;49.53
50268;BME280;36153;50.960;6.220;2024-01-30T10:06:43;101714.75;;;17.23;50.15
50268;BME280;36153;50.960;6.220;2024-01-30T10:08:43;101723.50;;;17.31;50.01
50268;BME280;36153;50.960;6.220;2024-01-30T10:10:47;101712.97;;;17.25;49.92
50268;BME280;36153;50.960;6.220;2024-01-30T10:12:49;101719.13;;;17.29;49.84
50268;BME280;36153;50.960;6.220;2024-01-30T10:14:49;101727.03;;;17.36;49.88
50268;BME280;36153;50.960;6.220;2024-01-30T10:16:50;101716.53;;;17.47;49.50
50268;BME280;36153;50.960;6.220;2024-01-30T10:18:52;101717.38;;;17.31;49.87
50268;BME280;36153;50.960;6.220;2024-01-30T10:20:52;101713.88;;;17.38;49.90
50268;BME280;36153;50.960;6.220;2024-01-30T10:22:52;101705.16;;;17.54;49.80
50268;BME280;36153;50.960;6.220;2024-01-30T10:24:54;101711.31;;;17.64;49.32
50268;BME280;36153;50.960;6.220;2024-01-30T10:26:55;101705.16;;;17.61;49.44
50268;BME280;36153;50.960;6.220;2024-01-30T10:28:57;101712.88;;;17.00;51.06
50268;BME280;36153;50.960;6.220;2024-01-30T10:30:58;101709.44;;;17.20;50.67
50268;BME280;36153;50.960;6.220;2024-01-30T10:32:59;101712.88;;;17.03;51.17
50268;BME280;36153;50.960;6.220;2024-01-30T10:35:00;101719.09;;;17.19;51.19